Аэропорт: Толмачёво. Новосибирск

ICAO: UNNT

METAR:
2018/09/23 11:00
UNNT 231100Z 22005MPS 9999 SCT038CB 14/08 Q1009 R25/290160 R16/290160 NOSIG RMK QFE747/0996
METAR:
2018/09/23 09:25
TAF UNNT 230800Z 2309/2409 20006G13MPS 9999 BKN030CB 
      TEMPO 2309/2315 24008G16MPS 3100 -SHRA BKN011CB PROB40 
      TEMPO 2309/2315 -TSRA 
     FM231700 24003G08MPS 9999 -SHRA OVC011CB 
      TEMPO 2317/2405 3100 -SHRA SCT005 BKN011CB 
      TEMPO 2405/2409 29005G10MPS 3100 -TSRA